Terminal Aerodrome Forecast
Issued by NWS

Home | Current Version | Previous Version | Text Only | Print | Product List | Glossary On
Versions: 1 2 3 4 5 6 7 8 9 10 11 12 13 14
000
FTUS43 KDTX 272320
TAFMBS
TAF
KMBS 272320Z 2800/2824 31012KT P6SM SCT030 BKN050
     FM280100 28008KT P6SM SCT050 BKN200
     FM281400 24006KT P6SM OVC120
     FM281900 19008KT 6SM -SN BR BKN040 OVC080
     FM282200 19006KT 1SM -SN BR BKN012 OVC030=

USA.gov is the U.S. government's official web portal to all federal, state and local government web resources and services.